WetterOnline ( https://www.wetteronline.de )

Wetter aktuell Klein Welzin

Aktuelles Wetter: Schwerin (68m)

6-stündlich | Neueste Meldungen
Ortszeit Temperatur Wetter
Mi, 18.09. 8:00 9.6° C leicht bewölkt
Mi, 18.09. 2:00 8.5° C wolkenlos
Di, 17.09. 20:00 10.9° C leicht bewölkt
Di, 17.09. 14:00 11.8° C wolkig
Di, 17.09. 8:00 10.4° C bewölkt
Di, 17.09. 2:00 11.3° C bedeckt
Mo, 16.09. 20:00 13.8° C bedeckt
Mo, 16.09. 14:00 14.8° C bedeckt
Ortszeit Temperatur Wetter
Mi, 18.09. 11:30 13.1° C bewölkt
Mi, 18.09. 11:20 13.1° C bewölkt
Mi, 18.09. 11:10 12.3° C wolkig
Mi, 18.09. 11:00 12.9° C leicht bewölkt
Mi, 18.09. 10:50 12.9° C leicht bewölkt
Mi, 18.09. 10:40 12.5° C leicht bewölkt
Mi, 18.09. 10:30 12.3° C wolkenlos
Mi, 18.09. 10:00 11.9° C wolkenlos
Mi, 18.09. 9:30 11.2° C leicht bewölkt
Mi, 18.09. 9:00 10.6° C wolkenlos
Mi, 18.09. 8:30 9.9° C wolkenlos
Ortszeit Relative Feuchte Sichtweite
Mi, 18.09. 8:00 79% 27 km
Mi, 18.09. 2:00 80% 40 km
Di, 17.09. 20:00 67% 40 km
Di, 17.09. 14:00 79% 55 km
Di, 17.09. 8:00 87% 30 km
Di, 17.09. 2:00 84% 40 km
Mo, 16.09. 20:00 68% 35 km
Mo, 16.09. 14:00 60% 35 km
Ortszeit Relative Feuchte Sichtweite
Mi, 18.09. 11:30 57% 35 km
Mi, 18.09. 11:20 57% -
Mi, 18.09. 11:10 60% -
Mi, 18.09. 11:00 61% 40 km
Mi, 18.09. 10:50 61% -
Mi, 18.09. 10:40 63% -
Mi, 18.09. 10:30 65% 40 km
Mi, 18.09. 10:00 68% 35 km
Mi, 18.09. 9:30 70% 30 km
Mi, 18.09. 9:00 74% 30 km
Mi, 18.09. 8:30 77% 30 km
Ortszeit Niederschlagsmenge Niederschlagsart
Mi, 18.09. 8:00 0.0 l/m2 in 12 Std. -
Mi, 18.09. 2:00 0.0 l/m2 in 6 Std. -
Di, 17.09. 20:00 2 l/m2 in 12 Std. Regen
Di, 17.09. 14:00 2 l/m2 in 6 Std. Regen
Di, 17.09. 8:00 0.1 l/m2 in 12 Std. Regen
Di, 17.09. 2:00 0.0 l/m2 in 6 Std. -
Mo, 16.09. 20:00 0.1 l/m2 in 12 Std. Sprühregen
Mo, 16.09. 14:00 0.1 l/m2 in 6 Std. Regen
Ortszeit Niederschlagsmenge Niederschlagsart
Mi, 18.09. 11:30 0.0 l/m2 in 1 Std. -
Mi, 18.09. 11:20 keine Meldung -
Mi, 18.09. 11:10 keine Meldung -
Mi, 18.09. 11:00 0.0 l/m2 in 1 Std. -
Mi, 18.09. 10:50 keine Meldung -
Mi, 18.09. 10:40 keine Meldung -
Mi, 18.09. 10:30 0.0 l/m2 in 1 Std. -
Mi, 18.09. 10:00 0.0 l/m2 in 1 Std. -
Mi, 18.09. 9:30 0.0 l/m2 in 1 Std. -
Mi, 18.09. 9:00 0.0 l/m2 in 1 Std. -
Mi, 18.09. 8:30 0.0 l/m2 in 1 Std. -
Ortszeit Stärke Spitze Richtung
km/h Bft. km/h Grad Sektor
Mi, 18.09. 8:00 18 3 32 280° W
Mi, 18.09. 2:00 18 3 47 290° W
Di, 17.09. 20:00 20 4 70 280° W
Di, 17.09. 14:00 26 4 52 270° W
Di, 17.09. 8:00 18 3 29 240° SW
Di, 17.09. 2:00 14 3 25 240° SW
Mo, 16.09. 20:00 15 3 31 270° W
Mo, 16.09. 14:00 18 3 36 260° W
Ortszeit Stärke Spitze Richtung
km/h Bft. km/h Grad Sektor
Mi, 18.09. 11:30 17 3 39 320° NW
Mi, 18.09. 11:20 17 3 - 320° NW
Mi, 18.09. 11:10 22 4 - 310° NW
Mi, 18.09. 11:00 20 4 41 310° NW
Mi, 18.09. 10:50 20 4 - 310° NW
Mi, 18.09. 10:40 20 4 - 290° W
Mi, 18.09. 10:30 18 3 32 300° NW
Mi, 18.09. 10:00 18 3 40 300° NW
Mi, 18.09. 9:30 20 4 39 300° NW
Mi, 18.09. 9:00 15 3 31 290° W
Mi, 18.09. 8:30 19 3 31 280° W
Ortszeit Untergrenze Bedeckung Gattung
total tief tief mittel hoch
Mi, 18.09. 8:00 1380 m 4/8 4/8 - - -
Mi, 18.09. 2:00 - 0/8 0/8 - - -
Di, 17.09. 20:00 1320 m 2/8 2/8 - - -
Di, 17.09. 14:00 1110 m 7/8 5/8 - - -
Di, 17.09. 8:00 1020 m 8/8 5/8 - - -
Di, 17.09. 2:00 1500 m 8/8 8/8 - - -
Mo, 16.09. 20:00 1500 m 8/8 8/8 - - -
Mo, 16.09. 14:00 1140 m 8/8 8/8 - - -
Ortszeit Bedeckungsgrad in Achtel und Wolkenuntergrenze
Mi, 18.09. 11:30 7(1110m)
Mi, 18.09. 11:20 7(1110m)
Mi, 18.09. 11:10 6(1110m)
Mi, 18.09. 11:00 3(1020m) 6(1290m)
Mi, 18.09. 10:50 3(1020m)
Mi, 18.09. 10:40 2(930m)
Mi, 18.09. 10:30 1(930m)
Mi, 18.09. 10:00 keine Wolken
Mi, 18.09. 9:30 2(1410m)
Mi, 18.09. 9:00 keine Wolken
Mi, 18.09. 8:30 keine Wolken
Ortszeit Luftdruck NN (hPa) Tendenz (hPa in 3 Std.)
Mi, 18.09. 8:00 1021 + 1,5
Mi, 18.09. 2:00 1018 + 1,9
Di, 17.09. 20:00 1014 + 1,1
Di, 17.09. 14:00 1012 - 1,0
Di, 17.09. 8:00 1014 - 1,3
Di, 17.09. 2:00 1016 - 0,8
Mo, 16.09. 20:00 1017 0,0
Mo, 16.09. 14:00 1018 - 0,5
Ortszeit Luftdruck NN (hPa) Tendenz (hPa in 3 Std.)
Mi, 18.09. 11:30 1022 + 1,5
Mi, 18.09. 11:20 1022 keine Meldung
Mi, 18.09. 11:10 1022 keine Meldung
Mi, 18.09. 11:00 1022 + 1,5
Mi, 18.09. 10:50 1022 keine Meldung
Mi, 18.09. 10:40 1022 keine Meldung
Mi, 18.09. 10:30 1022 + 1,8
Mi, 18.09. 10:00 1022 + 1,7
Mi, 18.09. 9:30 1022 + 1,8
Mi, 18.09. 9:00 1021 + 1,5
Mi, 18.09. 8:30 1021 + 1,2
Ortszeit Schneehöhe (cm)
Mi, 18.09. 8:00 -
Mi, 18.09. 2:00 -
Di, 17.09. 20:00 -
Di, 17.09. 14:00 -
Di, 17.09. 8:00 -
Di, 17.09. 2:00 -
Mo, 16.09. 20:00 -
Mo, 16.09. 14:00 -
Ortszeit Schneehöhe (cm)
Mi, 18.09. 11:30 -
Mi, 18.09. 11:20 -
Mi, 18.09. 11:10 -
Mi, 18.09. 11:00 -
Mi, 18.09. 10:50 -
Mi, 18.09. 10:40 -
Mi, 18.09. 10:30 -
Mi, 18.09. 10:00 -
Mi, 18.09. 9:30 -
Mi, 18.09. 9:00 -
Mi, 18.09. 8:30 -
Link zu dieser Seite / Seite empfehlen

Das Wetter in ...